Time;durP1;ratioP1;P1;durP2;ratioP2;P2;SDS_P1;SDS_P2;PMS_P1;PMS_P2;Temp;Humidity;BMP_temperature;BMP_pressure;BME280_temperature;BME280_humidity;BME280_pressure;Samples;Min_cycle;Max_cycle;Signal;HPM_P1;HPM_P2
2023/07/03 00:01:42;;;;;;;17.83;5.05;;;15.80;99.90;;;;;;5123544;27;20048;-61
2023/07/03 00:04:10;;;;;;;15.52;5.28;;;15.80;99.90;;;;;;5120175;27;20039;-62
2023/07/03 00:06:37;;;;;;;16.40;5.07;;;15.80;99.90;;;;;;5119612;27;20138;-61
2023/07/03 00:09:03;;;;;;;16.45;4.78;;;15.80;99.90;;;;;;5119910;27;20531;-62
2023/07/03 00:11:29;;;;;;;14.25;5.30;;;15.70;99.90;;;;;;5131834;27;20417;-61
2023/07/03 00:13:55;;;;;;;17.83;5.18;;;15.70;99.90;;;;;;5141030;27;20042;-61
2023/07/03 00:16:20;;;;;;;15.07;5.25;;;15.70;99.90;;;;;;5138104;27;20118;-61
2023/07/03 00:18:47;;;;;;;18.92;5.50;;;15.70;99.90;;;;;;5119235;27;20031;-62
2023/07/03 00:21:13;;;;;;;17.75;4.97;;;15.70;99.90;;;;;;5119817;27;20038;-61
2023/07/03 00:23:39;;;;;;;21.10;4.90;;;15.70;99.90;;;;;;5142976;27;20551;-61
2023/07/03 00:26:05;;;;;;;18.92;5.20;;;15.70;99.90;;;;;;5121735;27;20043;-63
2023/07/03 00:28:30;;;;;;;15.23;5.18;;;15.70;99.90;;;;;;5126773;27;20043;-63
2023/07/03 00:30:57;;;;;;;22.70;4.93;;;15.70;99.90;;;;;;5139513;27;20537;-61
2023/07/03 00:33:22;;;;;;;22.90;5.18;;;15.70;99.90;;;;;;5127370;27;20142;-62
2023/07/03 00:35:48;;;;;;;14.77;4.60;;;15.70;99.90;;;;;;5113718;27;20566;-61
2023/07/03 00:38:13;;;;;;;19.42;5.38;;;15.70;99.90;;;;;;5112475;27;20636;-61
2023/07/03 00:40:39;;;;;;;17.80;4.75;;;15.70;99.90;;;;;;5141189;27;20042;-61
2023/07/03 00:43:05;;;;;;;18.92;5.22;;;15.60;99.90;;;;;;5118590;27;20391;-61
2023/07/03 00:45:32;;;;;;;18.67;4.78;;;15.70;99.90;;;;;;5131836;27;20063;-62
2023/07/03 00:47:58;;;;;;;17.55;4.95;;;15.70;99.90;;;;;;5137482;27;20034;-61
2023/07/03 00:50:24;;;;;;;19.30;4.55;;;15.70;99.90;;;;;;5121472;27;20087;-61
2023/07/03 00:52:54;;;;;;;17.25;4.88;;;15.70;99.90;;;;;;5118188;27;20043;-62
2023/07/03 00:55:22;;;;;;;20.05;5.32;;;15.70;99.90;;;;;;5138170;27;20046;-61
2023/07/03 00:57:47;;;;;;;17.67;5.07;;;15.70;99.90;;;;;;5148206;27;20046;-62
2023/07/03 01:00:14;;;;;;;17.15;4.72;;;15.60;99.90;;;;;;5132647;27;20389;-63
2023/07/03 01:02:59;;;;;;;18.17;4.85;;;15.60;99.90;;;;;;5116837;27;20501;-62
2023/07/03 01:05:31;;;;;;;18.88;4.97;;;15.60;99.90;;;;;;5125302;27;20041;-61
2023/07/03 01:07:58;;;;;;;18.17;4.20;;;15.60;99.90;;;;;;5120715;27;20099;-61
2023/07/03 01:10:26;;;;;;;17.23;4.97;;;15.70;99.90;;;;;;5138804;27;20063;-62
2023/07/03 01:12:55;;;;;;;21.23;4.75;;;15.70;99.90;;;;;;5122675;27;20039;-62
2023/07/03 01:15:30;;;;;;;20.25;5.15;;;15.70;99.90;;;;;;5124557;27;20046;-61
2023/07/03 01:17:58;;;;;;;23.05;5.13;;;15.70;99.90;;;;;;5118590;27;20497;-61
2023/07/03 01:20:28;;;;;;;17.00;4.82;;;15.70;99.90;;;;;;5137785;27;20043;-62
2023/07/03 01:23:31;;;;;;;20.25;5.03;;;15.70;99.90;;;;;;5136749;27;20496;-61
2023/07/03 01:25:58;;;;;;;20.55;5.07;;;15.70;99.90;;;;;;5118770;27;20034;-62
2023/07/03 01:28:26;;;;;;;23.63;5.18;;;15.70;99.90;;;;;;5121669;27;20049;-62
2023/07/03 01:30:53;;;;;;;14.77;4.13;;;15.70;99.90;;;;;;5118651;27;21074;-62
2023/07/03 01:33:25;;;;;;;17.02;4.40;;;15.70;99.90;;;;;;5149806;27;20081;-61
2023/07/03 01:35:53;;;;;;;15.07;4.83;;;15.70;99.90;;;;;;5138058;27;20082;-61
2023/07/03 01:38:21;;;;;;;19.90;4.95;;;15.70;99.90;;;;;;5118850;27;20301;-61
2023/07/03 01:40:47;;;;;;;24.08;5.15;;;15.70;99.90;;;;;;5139587;27;20031;-61
2023/07/03 01:43:14;;;;;;;21.88;4.65;;;15.70;99.90;;;;;;5137516;27;20026;-61
2023/07/03 01:45:41;;;;;;;18.10;5.22;;;15.70;99.90;;;;;;5136719;27;20038;-62
2023/07/03 01:48:08;;;;;;;19.48;5.15;;;15.70;99.90;;;;;;5141900;27;20037;-62
2023/07/03 01:50:35;;;;;;;16.45;4.72;;;15.70;99.90;;;;;;5118801;27;20046;-62
2023/07/03 01:53:26;;;;;;;19.23;4.55;;;15.70;99.90;;;;;;5119497;27;20121;-61
2023/07/03 01:56:10;;;;;;;21.35;4.80;;;15.70;99.90;;;;;;5129993;27;20720;-62
2023/07/03 01:58:41;;;;;;;18.85;5.30;;;15.70;99.90;;;;;;5140060;27;20039;-62
2023/07/03 02:01:10;;;;;;;23.02;5.20;;;15.70;99.90;;;;;;5139306;27;20046;-61
2023/07/03 02:03:43;;;;;;;21.50;5.00;;;15.70;99.90;;;;;;5122790;27;20570;-62
2023/07/03 02:06:15;;;;;;;20.75;4.70;;;15.70;99.90;;;;;;5140362;27;20050;-63
2023/07/03 02:08:41;;;;;;;20.33;5.40;;;15.70;99.90;;;;;;5122336;27;20413;-61
2023/07/03 02:11:15;;;;;;;24.20;5.50;;;15.70;99.90;;;;;;5138571;27;20047;-64
2023/07/03 02:13:41;;;;;;;20.48;5.00;;;15.60;99.90;;;;;;5116821;27;20051;-61
2023/07/03 02:16:07;;;;;;;19.77;4.68;;;15.60;99.90;;;;;;5102604;27;20047;-61
2023/07/03 02:18:34;;;;;;;23.50;4.97;;;15.60;99.90;;;;;;5118326;27;20042;-62
2023/07/03 02:21:00;;;;;;;19.80;4.57;;;15.60;99.90;;;;;;5153494;27;20046;-61
2023/07/03 02:23:26;;;;;;;21.08;4.57;;;15.60;99.90;;;;;;5153244;27;20113;-61
2023/07/03 02:25:52;;;;;;;21.67;5.03;;;15.60;99.90;;;;;;5141126;27;20042;-62
2023/07/03 02:28:18;;;;;;;17.67;5.03;;;15.60;99.90;;;;;;5122047;27;20046;-61
2023/07/03 02:30:44;;;;;;;23.00;5.47;;;15.60;99.90;;;;;;5118807;27;20071;-61
2023/07/03 02:33:11;;;;;;;22.27;4.53;;;15.60;99.90;;;;;;5117479;27;20054;-62
2023/07/03 02:35:37;;;;;;;27.15;5.25;;;15.60;99.90;;;;;;5116363;27;20035;-62
2023/07/03 02:38:03;;;;;;;17.35;5.47;;;15.60;99.90;;;;;;5105398;27;20047;-61
2023/07/03 02:40:29;;;;;;;20.20;4.90;;;15.60;99.90;;;;;;5144271;27;20035;-61
2023/07/03 02:42:54;;;;;;;19.35;5.05;;;15.60;99.90;;;;;;5123522;27;20569;-61
2023/07/03 02:45:20;;;;;;;22.42;4.80;;;15.60;99.90;;;;;;5119030;27;20049;-62
2023/07/03 02:47:46;;;;;;;14.65;3.78;;;15.60;99.90;;;;;;5122362;27;20130;-61
2023/07/03 02:50:11;;;;;;;18.85;4.75;;;15.60;99.90;;;;;;5139610;27;20035;-63
2023/07/03 02:52:37;;;;;;;18.05;3.75;;;15.60;99.90;;;;;;5122054;27;20076;-61
2023/07/03 02:55:03;;;;;;;13.07;3.40;;;15.60;99.90;;;;;;5141640;27;20924;-62
2023/07/03 02:57:28;;;;;;;17.90;3.95;;;15.60;99.90;;;;;;5123199;27;20057;-61
2023/07/03 02:59:54;;;;;;;13.13;3.38;;;15.60;99.90;;;;;;5135541;27;20084;-62
2023/07/03 03:02:20;;;;;;;10.93;3.10;;;15.60;99.90;;;;;;5120954;27;20038;-61
2023/07/03 03:04:47;;;;;;;12.23;3.03;;;15.50;99.90;;;;;;5142224;27;20047;-61
2023/07/03 03:07:14;;;;;;;10.38;2.35;;;15.50;99.90;;;;;;5132730;27;20042;-62
2023/07/03 03:09:40;;;;;;;13.00;3.22;;;15.50;99.90;;;;;;5133798;27;20501;-62
2023/07/03 03:12:07;;;;;;;12.93;2.25;;;15.50;99.90;;;;;;5141406;27;20106;-62
2023/07/03 03:14:33;;;;;;;14.13;2.50;;;15.50;99.90;;;;;;5130403;27;20218;-61
2023/07/03 03:16:58;;;;;;;10.55;2.45;;;15.40;99.90;;;;;;5121919;27;20735;-62
2023/07/03 03:19:24;;;;;;;6.15;2.00;;;15.40;99.90;;;;;;5139647;27;20034;-62
2023/07/03 03:21:50;;;;;;;9.85;2.33;;;15.40;99.90;;;;;;5126037;27;20047;-62
2023/07/03 03:24:16;;;;;;;7.45;2.30;;;15.40;99.90;;;;;;5141375;27;20431;-61
2023/07/03 03:26:42;;;;;;;9.27;2.15;;;15.40;99.90;;;;;;5123316;27;20098;-61
2023/07/03 03:29:08;;;;;;;9.45;2.22;;;15.40;99.90;;;;;;5119689;27;20035;-62
2023/07/03 03:31:33;;;;;;;10.77;2.47;;;15.30;99.90;;;;;;5117724;27;20047;-61
2023/07/03 03:33:59;;;;;;;11.70;2.38;;;15.30;99.90;;;;;;5137290;27;20451;-62
2023/07/03 03:36:25;;;;;;;10.52;2.42;;;15.30;99.90;;;;;;5141039;27;20035;-61
2023/07/03 03:38:50;;;;;;;10.38;2.47;;;15.20;99.90;;;;;;5118180;27;20039;-61
2023/07/03 03:41:16;;;;;;;8.32;1.92;;;15.20;99.90;;;;;;5119733;27;20110;-62
2023/07/03 03:43:41;;;;;;;8.32;2.85;;;15.10;99.90;;;;;;5139797;27;20038;-62
2023/07/03 03:46:08;;;;;;;7.63;1.85;;;15.10;99.90;;;;;;5123532;27;20037;-61
2023/07/03 03:48:35;;;;;;;6.90;1.88;;;15.10;99.90;;;;;;5141955;27;20039;-62
2023/07/03 03:51:00;;;;;;;9.15;2.00;;;15.00;99.90;;;;;;5146310;27;20042;-61
2023/07/03 03:53:26;;;;;;;9.98;1.90;;;15.00;99.90;;;;;;5137473;27;20023;-61
2023/07/03 03:55:52;;;;;;;10.13;2.10;;;15.00;99.90;;;;;;5123560;27;20042;-63
2023/07/03 03:58:20;;;;;;;9.13;1.80;;;14.90;99.90;;;;;;5121395;27;20054;-62
2023/07/03 04:00:46;;;;;;;9.27;2.42;;;14.90;99.90;;;;;;5117973;27;20074;-62
2023/07/03 04:03:12;;;;;;;9.15;2.20;;;14.90;99.90;;;;;;5116052;27;20508;-61
2023/07/03 04:05:41;;;;;;;8.88;1.80;;;14.80;99.90;;;;;;5138872;27;20621;-60
2023/07/03 04:08:07;;;;;;;6.25;1.60;;;14.80;99.90;;;;;;5137456;27;20083;-61
2023/07/03 04:10:33;;;;;;;8.23;1.58;;;14.80;99.90;;;;;;5122600;27;20054;-61
2023/07/03 04:12:58;;;;;;;9.70;2.33;;;14.80;99.90;;;;;;5140327;27;20039;-62
2023/07/03 04:15:24;;;;;;;7.97;1.80;;;14.80;99.90;;;;;;5140625;27;20484;-62
2023/07/03 04:17:49;;;;;;;5.85;2.10;;;14.80;99.90;;;;;;5140942;27;20127;-61
2023/07/03 04:20:17;;;;;;;8.02;1.60;;;14.80;99.90;;;;;;5139421;27;20034;-62
2023/07/03 04:22:44;;;;;;;8.07;1.80;;;14.80;99.90;;;;;;5122874;27;20050;-62
2023/07/03 04:25:10;;;;;;;9.27;2.00;;;14.80;99.90;;;;;;5120013;27;21057;-61
2023/07/03 04:27:36;;;;;;;10.02;2.13;;;14.80;99.90;;;;;;5119680;27;20042;-62
2023/07/03 04:30:04;;;;;;;6.55;1.70;;;14.90;99.90;;;;;;5140783;27;20038;-61
2023/07/03 04:32:30;;;;;;;10.23;1.80;;;14.90;99.90;;;;;;5124508;27;20042;-61
2023/07/03 04:34:57;;;;;;;6.70;1.63;;;14.90;99.90;;;;;;5113650;27;20175;-61
2023/07/03 04:37:26;;;;;;;8.20;2.08;;;15.00;99.90;;;;;;5118125;27;20401;-61
2023/07/03 04:39:53;;;;;;;7.88;1.70;;;15.00;99.90;;;;;;5129856;27;20568;-61
2023/07/03 04:42:20;;;;;;;8.55;2.80;;;15.10;99.90;;;;;;5135007;27;20046;-61
2023/07/03 04:44:48;;;;;;;8.10;2.17;;;15.10;99.90;;;;;;5123299;27;20505;-61
2023/07/03 04:47:16;;;;;;;7.60;1.50;;;15.10;99.90;;;;;;5121709;27;20433;-61
2023/07/03 04:49:45;;;;;;;6.47;1.50;;;15.00;99.90;;;;;;5141836;27;20047;-63
2023/07/03 04:52:16;;;;;;;6.47;1.63;;;15.00;99.90;;;;;;5119407;27;20051;-61
2023/07/03 04:54:42;;;;;;;8.75;1.90;;;15.00;99.90;;;;;;5141630;27;20645;-63
2023/07/03 04:57:08;;;;;;;9.38;1.77;;;15.00;99.90;;;;;;5121711;27;20494;-61
2023/07/03 04:59:35;;;;;;;6.65;1.60;;;15.10;99.90;;;;;;5142548;27;20042;-61
2023/07/03 05:02:01;;;;;;;5.55;1.55;;;15.10;99.90;;;;;;5119745;27;20072;-62
2023/07/03 05:04:28;;;;;;;8.30;1.70;;;15.30;99.90;;;;;;5141797;27;20039;-61
2023/07/03 05:06:53;;;;;;;6.13;1.88;;;15.40;99.90;;;;;;5111533;27;20034;-62
2023/07/03 05:09:19;;;;;;;8.32;1.70;;;15.40;99.90;;;;;;5131209;27;20057;-61
2023/07/03 05:11:48;;;;;;;5.63;1.58;;;15.40;99.90;;;;;;5129162;27;20066;-61
2023/07/03 05:14:14;;;;;;;8.10;2.08;;;15.40;99.90;;;;;;5096300;27;20457;-62
2023/07/03 05:16:40;;;;;;;9.18;2.10;;;15.40;99.90;;;;;;5115543;27;20042;-62
2023/07/03 05:19:06;;;;;;;11.55;1.90;;;15.30;99.90;;;;;;5112521;27;20667;-61
2023/07/03 05:21:31;;;;;;;9.38;1.80;;;15.40;99.90;;;;;;5145050;27;20512;-61
2023/07/03 05:23:57;;;;;;;11.52;2.40;;;15.50;99.90;;;;;;5141004;27;20039;-61
2023/07/03 05:26:24;;;;;;;10.57;2.50;;;15.60;99.90;;;;;;5114008;27;20051;-61
2023/07/03 05:28:50;;;;;;;10.15;1.98;;;15.70;99.90;;;;;;5098737;27;20505;-62
2023/07/03 05:31:16;;;;;;;12.15;2.83;;;15.80;99.90;;;;;;5138871;27;20057;-62
2023/07/03 05:33:41;;;;;;;8.98;1.83;;;15.90;99.90;;;;;;5148731;27;20050;-63
2023/07/03 05:36:07;;;;;;;12.50;2.00;;;16.00;99.90;;;;;;5145084;27;20041;-62
2023/07/03 05:38:34;;;;;;;8.95;2.00;;;16.10;99.90;;;;;;5116701;27;20035;-61
2023/07/03 05:41:00;;;;;;;10.20;2.35;;;16.10;99.90;;;;;;5117342;27;20505;-62
2023/07/03 05:43:27;;;;;;;8.77;1.75;;;16.30;99.90;;;;;;5114771;27;20096;-62
2023/07/03 05:45:52;;;;;;;8.98;1.65;;;16.30;99.90;;;;;;5130283;27;20031;-61
2023/07/03 05:48:18;;;;;;;10.07;2.08;;;16.50;99.90;;;;;;5139929;27;20096;-61
2023/07/03 05:50:44;;;;;;;11.85;1.95;;;16.50;99.90;;;;;;5119970;27;20066;-62
2023/07/03 05:53:10;;;;;;;9.35;2.17;;;16.70;99.90;;;;;;5135208;27;20046;-62
2023/07/03 05:55:36;;;;;;;9.93;2.30;;;16.70;99.90;;;;;;5132274;27;20375;-61
2023/07/03 05:58:02;;;;;;;7.47;2.20;;;16.70;99.90;;;;;;5122956;27;20035;-62
2023/07/03 06:00:30;;;;;;;14.20;3.05;;;16.80;99.90;;;;;;5142009;27;20145;-62
2023/07/03 06:02:56;;;;;;;9.80;1.90;;;16.70;99.90;;;;;;5116449;27;20086;-61
2023/07/03 06:05:22;;;;;;;9.55;1.90;;;16.70;99.90;;;;;;5127953;27;20138;-61
2023/07/03 06:07:49;;;;;;;8.65;2.03;;;16.70;99.90;;;;;;5120972;27;20122;-62
2023/07/03 06:10:15;;;;;;;9.85;1.73;;;16.80;99.90;;;;;;5154080;27;20111;-61
2023/07/03 06:12:41;;;;;;;11.73;2.13;;;16.90;99.90;;;;;;5130081;27;20142;-61
2023/07/03 06:15:07;;;;;;;10.05;2.03;;;17.00;99.90;;;;;;5150816;27;20091;-61
2023/07/03 06:17:32;;;;;;;13.32;2.42;;;17.10;99.90;;;;;;5121696;27;20027;-61
2023/07/03 06:19:58;;;;;;;9.98;1.92;;;17.10;99.90;;;;;;5114615;27;20537;-62
2023/07/03 06:22:24;;;;;;;7.65;1.90;;;17.30;99.90;;;;;;5114562;27;20031;-62
2023/07/03 06:24:50;;;;;;;11.80;2.00;;;17.30;99.90;;;;;;5132964;27;20432;-62
2023/07/03 06:27:16;;;;;;;7.32;2.03;;;17.40;99.90;;;;;;5117545;27;20038;-62
2023/07/03 06:29:42;;;;;;;8.75;1.80;;;17.30;99.90;;;;;;5145825;27;20038;-61
2023/07/03 06:32:09;;;;;;;8.13;2.08;;;17.40;99.90;;;;;;5153417;27;20110;-62
2023/07/03 06:34:35;;;;;;;10.77;1.75;;;17.50;99.90;;;;;;5134939;27;20049;-62
2023/07/03 06:37:02;;;;;;;8.18;1.52;;;17.60;99.90;;;;;;5117897;27;20035;-62
2023/07/03 06:39:28;;;;;;;9.93;1.65;;;17.60;99.90;;;;;;5131174;27;20130;-61
2023/07/03 06:41:54;;;;;;;8.32;2.20;;;17.70;99.90;;;;;;5135060;27;20126;-62
2023/07/03 06:44:20;;;;;;;11.05;2.13;;;17.70;99.90;;;;;;5147166;27;20042;-62
2023/07/03 06:46:46;;;;;;;9.00;2.15;;;17.70;99.90;;;;;;5112202;27;20514;-61
2023/07/03 06:49:13;;;;;;;10.27;1.90;;;17.60;99.90;;;;;;5145993;27;20117;-61
2023/07/03 06:51:40;;;;;;;9.30;1.77;;;17.60;99.90;;;;;;5119726;27;20043;-61
2023/07/03 06:54:06;;;;;;;8.43;1.80;;;17.60;99.90;;;;;;5152822;27;20039;-61
2023/07/03 06:56:32;;;;;;;9.75;2.17;;;17.40;99.90;;;;;;5134356;27;20061;-62
2023/07/03 06:58:57;;;;;;;12.43;2.20;;;17.30;99.90;;;;;;5133415;27;20049;-62
2023/07/03 07:01:27;;;;;;;11.43;2.83;;;17.10;99.90;;;;;;5131929;27;20054;-61
2023/07/03 07:03:53;;;;;;;12.40;2.05;;;16.80;99.90;;;;;;5115231;27;20046;-62
2023/07/03 07:06:22;;;;;;;12.02;2.30;;;16.90;99.90;;;;;;5120863;27;20045;-63
2023/07/03 07:08:49;;;;;;;9.98;1.88;;;17.10;99.90;;;;;;5114027;27;20050;-62
2023/07/03 07:11:18;;;;;;;7.90;1.70;;;17.30;99.90;;;;;;5114992;27;20055;-62
2023/07/03 07:13:46;;;;;;;9.07;1.58;;;17.50;99.90;;;;;;5132256;27;20131;-62
2023/07/03 07:16:20;;;;;;;8.07;1.83;;;17.70;99.90;;;;;;5096184;27;20044;-62
2023/07/03 07:18:57;;;;;;;6.38;1.45;;;17.90;99.90;;;;;;5132305;27;20027;-62
2023/07/03 07:21:23;;;;;;;8.75;1.67;;;18.10;99.90;;;;;;5121213;27;20149;-62
2023/07/03 07:23:51;;;;;;;7.47;1.60;;;18.10;99.90;;;;;;5142132;27;20031;-61
2023/07/03 07:26:17;;;;;;;7.63;2.22;;;18.20;99.90;;;;;;5128492;27;20553;-62
2023/07/03 07:28:43;;;;;;;9.45;1.73;;;18.40;99.90;;;;;;5134028;27;20429;-61
2023/07/03 07:31:09;;;;;;;7.72;1.85;;;18.50;99.90;;;;;;5152021;27;20064;-62
2023/07/03 07:33:34;;;;;;;9.48;2.08;;;18.60;99.90;;;;;;5134468;27;20043;-62
2023/07/03 07:36:00;;;;;;;11.52;2.20;;;18.60;99.90;;;;;;5117146;27;20378;-62
2023/07/03 07:38:26;;;;;;;9.93;2.40;;;18.60;99.50;;;;;;5136179;27;20038;-61
2023/07/03 07:41:01;;;;;;;5.28;1.30;;;18.70;99.90;;;;;;5132637;27;20031;-63
2023/07/03 07:43:27;;;;;;;3.55;1.17;;;18.70;98.90;;;;;;5132900;27;20042;-62
2023/07/03 07:45:53;;;;;;;7.47;1.30;;;18.80;97.50;;;;;;5112703;27;20107;-62
2023/07/03 07:48:18;;;;;;;7.38;1.30;;;18.70;96.70;;;;;;5115249;27;20067;-62
2023/07/03 07:50:44;;;;;;;8.38;1.30;;;18.90;97.40;;;;;;5114104;27;20478;-62
2023/07/03 07:53:10;;;;;;;6.10;1.23;;;18.90;97.80;;;;;;5134161;27;20393;-62
2023/07/03 07:55:36;;;;;;;7.95;1.30;;;18.80;97.70;;;;;;5115824;27;20043;-61
2023/07/03 07:58:02;;;;;;;6.55;1.45;;;18.50;98.60;;;;;;5100702;27;20058;-61
2023/07/03 08:00:27;;;;;;;5.65;1.20;;;18.40;98.70;;;;;;5121991;27;21568;-62
2023/07/03 08:02:53;;;;;;;6.95;1.05;;;18.50;97.80;;;;;;5115527;27;20133;-62
2023/07/03 08:05:20;;;;;;;5.25;1.17;;;18.70;97.50;;;;;;5112754;27;20039;-61
2023/07/03 08:07:46;;;;;;;3.92;0.77;;;18.60;96.20;;;;;;5112891;27;20347;-62
2023/07/03 08:10:12;;;;;;;3.72;1.17;;;18.50;96.00;;;;;;5133531;27;20125;-63
2023/07/03 08:12:38;;;;;;;4.70;1.15;;;18.50;95.50;;;;;;5112584;27;20051;-62
2023/07/03 08:15:04;;;;;;;2.67;0.93;;;18.70;95.00;;;;;;5112165;27;20534;-62
2023/07/03 08:17:30;;;;;;;7.38;0.70;;;18.90;94.50;;;;;;5113873;27;20054;-62
2023/07/03 08:19:56;;;;;;;5.90;1.38;;;18.90;94.30;;;;;;5151536;27;20086;-62
2023/07/03 08:22:23;;;;;;;5.38;1.02;;;19.10;95.40;;;;;;5122789;27;20494;-61
2023/07/03 08:24:48;;;;;;;6.85;1.25;;;19.20;95.60;;;;;;5130197;27;20042;-62
2023/07/03 08:27:14;;;;;;;4.00;1.00;;;19.20;95.20;;;;;;5138839;27;20493;-62
2023/07/03 08:29:40;;;;;;;3.83;1.10;;;19.20;95.10;;;;;;5151569;27;20038;-62
2023/07/03 08:32:09;;;;;;;4.80;1.27;;;19.20;95.10;;;;;;5151633;27;20117;-62
2023/07/03 08:34:35;;;;;;;4.93;1.23;;;19.00;94.80;;;;;;5132472;27;20470;-62
2023/07/03 08:37:01;;;;;;;5.07;1.23;;;19.00;95.10;;;;;;5148833;27;20407;-62
2023/07/03 08:39:27;;;;;;;5.57;1.40;;;19.00;95.10;;;;;;5116381;27;20397;-62
2023/07/03 08:42:02;;;;;;;6.43;1.33;;;19.30;95.80;;;;;;5107280;27;20045;-62
2023/07/03 08:44:28;;;;;;;5.90;1.27;;;19.30;95.00;;;;;;5135520;27;20593;-62
2023/07/03 08:46:57;;;;;;;7.72;1.42;;;19.30;94.40;;;;;;5117762;27;20137;-61
2023/07/03 08:49:23;;;;;;;6.90;1.45;;;19.40;94.70;;;;;;5112407;27;20065;-62
2023/07/03 08:51:52;;;;;;;5.20;1.40;;;19.20;94.40;;;;;;5112108;27;20049;-61
2023/07/03 08:54:23;;;;;;;5.38;1.40;;;19.30;95.30;;;;;;5118233;27;20082;-61
2023/07/03 08:56:49;;;;;;;6.63;1.38;;;19.80;95.30;;;;;;5111990;27;20045;-61
2023/07/03 08:59:15;;;;;;;6.35;1.50;;;20.10;95.00;;;;;;5111844;27;20448;-62
2023/07/03 09:01:50;;;;;;;6.65;1.88;;;20.30;95.50;;;;;;5130305;27;20474;-62
2023/07/03 09:04:37;;;;;;;5.82;1.60;;;20.10;95.60;;;;;;5112302;27;20053;-61
2023/07/03 09:07:09;;;;;;;5.05;1.73;;;19.80;94.90;;;;;;5133138;27;20038;-61
2023/07/03 09:10:06;;;;;;;6.32;1.40;;;19.50;95.40;;;;;;5132010;27;20031;-63
2023/07/03 09:12:42;;;;;;;7.80;1.80;;;19.40;95.20;;;;;;5118743;27;20046;-61
2023/07/03 09:15:32;;;;;;;6.15;1.45;;;19.10;95.60;;;;;;5118725;27;20370;-62
2023/07/03 09:18:00;;;;;;;7.43;1.95;;;19.30;96.60;;;;;;5139811;27;20045;-63
2023/07/03 09:20:29;;;;;;;7.10;1.88;;;19.80;97.30;;;;;;5118743;27;20088;-62
2023/07/03 09:23:01;;;;;;;7.88;1.70;;;20.10;96.40;;;;;;5137039;27;20055;-62
2023/07/03 09:25:35;;;;;;;7.32;1.40;;;20.10;95.60;;;;;;5137106;27;20043;-62
2023/07/03 09:28:02;;;;;;;8.15;1.70;;;19.90;94.50;;;;;;5139075;27;20480;-62
2023/07/03 09:30:28;;;;;;;5.93;1.85;;;19.50;95.10;;;;;;5134145;27;20039;-63
2023/07/03 09:32:53;;;;;;;6.85;1.50;;;19.20;95.20;;;;;;5136995;27;20042;-62
2023/07/03 09:35:20;;;;;;;7.38;1.30;;;19.10;95.10;;;;;;5118325;27;20043;-61
2023/07/03 09:37:56;;;;;;;5.50;1.67;;;19.20;94.60;;;;;;5121861;27;20039;-61
2023/07/03 09:40:25;;;;;;;5.32;1.30;;;19.30;94.40;;;;;;5139052;27;20047;-62
2023/07/03 09:42:51;;;;;;;3.30;1.05;;;19.60;95.10;;;;;;5151431;27;20490;-62
2023/07/03 09:45:20;;;;;;;6.13;1.45;;;19.90;94.30;;;;;;5157405;27;20039;-61
2023/07/03 09:47:52;;;;;;;4.90;0.80;;;20.00;94.40;;;;;;5128125;27;20070;-62
2023/07/03 09:50:49;;;;;;;6.65;1.35;;;19.80;93.40;;;;;;5131256;27;20046;-61
2023/07/03 09:53:18;;;;;;;5.38;1.25;;;19.70;92.10;;;;;;5126205;27;20532;-62
2023/07/03 09:55:44;;;;;;;5.47;1.20;;;19.70;92.10;;;;;;5138598;27;20039;-61
2023/07/03 09:58:13;;;;;;;10.60;1.30;;;20.00;92.30;;;;;;5138762;27;20042;-62
2023/07/03 10:00:47;;;;;;;5.90;1.10;;;19.70;91.50;;;;;;5132749;27;20420;-61
2023/07/03 10:03:22;;;;;;;3.55;0.90;;;19.60;91.90;;;;;;5126029;27;20050;-63
2023/07/03 10:05:49;;;;;;;3.95;1.10;;;19.50;91.50;;;;;;5118998;27;20051;-62
2023/07/03 10:08:22;;;;;;;5.53;1.42;;;19.50;92.80;;;;;;5119388;27;20450;-62
2023/07/03 10:10:50;;;;;;;5.28;1.52;;;19.50;93.10;;;;;;5141829;27;20710;-63
2023/07/03 10:13:28;;;;;;;5.10;1.40;;;19.60;93.40;;;;;;5123450;27;20031;-62
2023/07/03 10:15:55;;;;;;;7.47;1.52;;;19.70;93.30;;;;;;5135950;27;20381;-61
2023/07/03 10:18:29;;;;;;;5.43;1.23;;;19.30;92.80;;;;;;5145239;27;20039;-61
2023/07/03 10:20:55;;;;;;;4.10;0.93;;;19.10;93.30;;;;;;5128047;27;20039;-62
2023/07/03 10:23:27;;;;;;;3.53;1.05;;;18.80;93.20;;;;;;5121695;27;20066;-62
2023/07/03 10:26:05;;;;;;;4.65;1.17;;;18.60;93.70;;;;;;5121363;27;20443;-62
2023/07/03 10:28:51;;;;;;;7.07;1.30;;;18.40;93.80;;;;;;5114168;27;20051;-63
2023/07/03 10:31:43;;;;;;;4.97;1.27;;;18.30;94.10;;;;;;5047359;28;20424;-64
2023/07/03 10:34:16;;;;;;;5.22;1.10;;;18.40;94.00;;;;;;5030820;28;20072;-62
2023/07/03 10:36:44;;;;;;;4.63;1.10;;;18.50;94.40;;;;;;5048710;28;20040;-62
2023/07/03 10:39:36;;;;;;;5.03;1.13;;;18.50;93.50;;;;;;5049952;28;20040;-61
2023/07/03 10:42:05;;;;;;;2.92;0.98;;;18.60;93.40;;;;;;5033154;28;20080;-62
2023/07/03 10:44:37;;;;;;;4.07;1.15;;;19.00;93.20;;;;;;5031665;28;20063;-62
2023/07/03 10:47:16;;;;;;;;;;;19.10;93.20;;;;;;5029129;28;20076;-62
2023/07/03 10:49:43;;;;;;;4.93;1.15;;;19.00;93.30;;;;;;5046652;28;19916;-62
2023/07/03 10:52:11;;;;;;;7.10;1.27;;;18.80;93.40;;;;;;5032263;28;20036;-61
2023/07/03 10:54:51;;;;;;;4.25;1.17;;;18.50;93.10;;;;;;5049041;28;20090;-61
2023/07/03 10:57:28;;;;;;;3.95;1.08;;;18.20;93.60;;;;;;5027016;28;20048;-61
2023/07/03 10:59:59;;;;;;;5.38;1.42;;;18.00;93.80;;;;;;5029961;28;20116;-62
2023/07/03 11:02:46;;;;;;;9.10;1.20;;;17.90;94.10;;;;;;5049001;28;20472;-61
2023/07/03 11:05:16;;;;;;;4.75;1.00;;;17.80;94.50;;;;;;5030780;28;20045;-63
2023/07/03 11:07:47;;;;;;;4.95;1.00;;;17.70;95.30;;;;;;5053183;27;20043;-61
2023/07/03 11:10:29;;;;;;;5.18;1.00;;;17.60;95.20;;;;;;5143312;27;20042;-62
2023/07/03 11:12:58;;;;;;;6.20;1.67;;;17.50;95.20;;;;;;5113041;27;20039;-61
2023/07/03 11:15:32;;;;;;;3.85;1.00;;;17.60;95.60;;;;;;5144059;27;20063;-61
2023/07/03 11:18:29;;;;;;;7.20;1.20;;;17.80;95.80;;;;;;5125521;27;20123;-61
2023/07/03 11:21:10;;;;;;;7.00;1.35;;;18.00;95.90;;;;;;5150564;27;20043;-62
2023/07/03 11:23:47;;;;;;;4.53;1.13;;;18.80;97.10;;;;;;5122969;27;20516;-61
2023/07/03 11:26:24;;;;;;;5.03;1.20;;;19.10;94.20;;;;;;5140696;27;20064;-63
2023/07/03 11:28:53;;;;;;;3.05;1.05;;;19.10;94.60;;;;;;5119453;27;20084;-63
2023/07/03 11:31:19;;;;;;;8.40;1.60;;;19.10;94.50;;;;;;5113692;27;20126;-62
2023/07/03 11:33:46;;;;;;;5.45;1.40;;;19.40;95.20;;;;;;5113470;27;20078;-61
2023/07/03 11:36:47;;;;;;;6.13;1.42;;;19.80;95.50;;;;;;5130370;27;20123;-62
2023/07/03 11:39:24;;;;;;;4.55;1.00;;;19.90;93.10;;;;;;5147256;27;20035;-62
2023/07/03 11:42:02;;;;;;;4.97;1.20;;;19.60;94.20;;;;;;5121085;27;20052;-61
2023/07/03 11:44:27;;;;;;;5.45;1.02;;;19.30;94.30;;;;;;5131504;27;20043;-63
2023/07/03 11:47:06;;;;;;;5.15;1.15;;;19.10;94.40;;;;;;5123291;27;20516;-62
2023/07/03 11:49:36;;;;;;;5.88;1.23;;;18.90;94.20;;;;;;5133273;27;20024;-63
2023/07/03 11:52:05;;;;;;;4.10;1.15;;;18.90;93.70;;;;;;5131432;27;20118;-61
2023/07/03 11:54:34;;;;;;;6.20;1.10;;;19.10;93.50;;;;;;5125519;27;20462;-62
2023/07/03 11:57:09;;;;;;;4.30;1.02;;;19.20;93.40;;;;;;5150354;27;20386;-62
2023/07/03 11:59:42;;;;;;;6.10;1.23;;;19.50;93.60;;;;;;5119251;27;20038;-62
2023/07/03 12:02:27;;;;;;;;;;;19.50;92.10;;;;;;5132051;27;20042;-63
2023/07/03 12:04:53;;;;;;;4.80;1.40;;;19.40;93.30;;;;;;5111530;27;19919;-61
2023/07/03 12:07:19;;;;;;;4.88;1.05;;;19.70;93.20;;;;;;5119335;27;20051;-62
2023/07/03 12:09:45;;;;;;;6.07;1.23;;;19.50;92.20;;;;;;5131955;27;20042;-63
2023/07/03 12:12:20;;;;;;;3.63;1.00;;;19.40;92.20;;;;;;5139349;27;20410;-62
2023/07/03 12:17:26;;;;;;;2.72;1.20;;;19.80;92.10;;;;;;5133327;27;20043;-61
2023/07/03 12:20:11;;;;;;;5.03;1.40;;;19.90;91.60;;;;;;5132040;27;20114;-62
2023/07/03 12:22:41;;;;;;;6.78;1.20;;;19.80;90.80;;;;;;5120441;27;20042;-61
2023/07/03 12:25:10;;;;;;;4.68;1.10;;;19.50;90.20;;;;;;5149056;27;20043;-61
2023/07/03 12:27:38;;;;;;;2.60;0.90;;;19.30;89.40;;;;;;5130509;27;20050;-62
2023/07/03 12:30:06;;;;;;;3.45;0.80;;;19.20;90.20;;;;;;5115608;27;20061;-62
2023/07/03 12:32:34;;;;;;;4.30;1.02;;;19.00;90.10;;;;;;5112438;27;20051;-61
2023/07/03 12:35:17;;;;;;;5.22;1.27;;;18.90;89.20;;;;;;5137555;27;20053;-61
2023/07/03 12:37:47;;;;;;;6.80;1.25;;;18.80;89.50;;;;;;5123895;27;20047;-61
2023/07/03 12:40:15;;;;;;;3.47;0.80;;;18.60;88.20;;;;;;5115468;27;20050;-62
2023/07/03 12:42:44;;;;;;;4.10;1.05;;;18.60;89.80;;;;;;5132695;27;20419;-62
2023/07/03 12:45:20;;;;;;;5.88;1.60;;;18.50;88.30;;;;;;5150177;27;20477;-61
2023/07/03 12:47:59;;;;;;;6.60;1.08;;;18.50;90.00;;;;;;5145935;27;20111;-61
2023/07/03 12:50:25;;;;;;;4.75;1.00;;;18.60;90.40;;;;;;5125857;27;20038;-61
2023/07/03 12:52:57;;;;;;;6.72;1.02;;;18.90;90.90;;;;;;5144607;27;20084;-62
2023/07/03 12:55:23;;;;;;;4.47;1.00;;;19.10;91.10;;;;;;5126229;27;20087;-62